sensor_id;sensor_type;location;lat;lon;timestamp;P1;durP1;ratioP1;P2;durP2;ratioP2
45402;SDS011;47427;51.976;5.326;2023-08-08T00:00:01;18.88;;;17.27;;
45402;SDS011;47427;51.976;5.326;2023-08-08T00:03:05;19.87;;;17.10;;
45402;SDS011;47427;51.976;5.326;2023-08-08T00:06:08;21.38;;;17.23;;
45402;SDS011;47427;51.976;5.326;2023-08-08T00:09:11;20.80;;;17.48;;
45402;SDS011;47427;51.976;5.326;2023-08-08T00:12:14;18.73;;;16.83;;
45402;SDS011;47427;51.976;5.326;2023-08-08T00:15:15;23.75;;;16.35;;
45402;SDS011;47427;51.976;5.326;2023-08-08T00:18:18;27.33;;;17.75;;
45402;SDS011;47427;51.976;5.326;2023-08-08T00:21:21;19.73;;;17.20;;
45402;SDS011;47427;51.976;5.326;2023-08-08T00:24:24;21.80;;;17.02;;
45402;SDS011;47427;51.976;5.326;2023-08-08T00:27:25;19.27;;;17.23;;
45402;SDS011;47427;51.976;5.326;2023-08-08T00:30:28;19.90;;;17.85;;
45402;SDS011;47427;51.976;5.326;2023-08-08T00:33:31;21.05;;;16.60;;
45402;SDS011;47427;51.976;5.326;2023-08-08T00:36:34;18.75;;;17.33;;
45402;SDS011;47427;51.976;5.326;2023-08-08T00:39:35;19.35;;;16.98;;
45402;SDS011;47427;51.976;5.326;2023-08-08T00:42:38;19.98;;;17.33;;
45402;SDS011;47427;51.976;5.326;2023-08-08T00:45:42;25.73;;;17.90;;
45402;SDS011;47427;51.976;5.326;2023-08-08T00:48:46;23.15;;;17.27;;
45402;SDS011;47427;51.976;5.326;2023-08-08T00:51:48;18.55;;;16.67;;
45402;SDS011;47427;51.976;5.326;2023-08-08T00:54:52;18.38;;;16.77;;
45402;SDS011;47427;51.976;5.326;2023-08-08T00:57:58;20.90;;;16.92;;
45402;SDS011;47427;51.976;5.326;2023-08-08T01:01:01;19.65;;;16.95;;
45402;SDS011;47427;51.976;5.326;2023-08-08T01:04:04;24.00;;;17.50;;
45402;SDS011;47427;51.976;5.326;2023-08-08T01:10:37;19.75;;;17.83;;
45402;SDS011;47427;51.976;5.326;2023-08-08T01:13:42;22.33;;;17.40;;
45402;SDS011;47427;51.976;5.326;2023-08-08T01:16:44;20.85;;;18.73;;
45402;SDS011;47427;51.976;5.326;2023-08-08T01:19:47;20.80;;;18.63;;
45402;SDS011;47427;51.976;5.326;2023-08-08T01:22:55;21.52;;;17.42;;
45402;SDS011;47427;51.976;5.326;2023-08-08T01:26:04;22.27;;;17.52;;
45402;SDS011;47427;51.976;5.326;2023-08-08T01:29:06;19.40;;;17.38;;
45402;SDS011;47427;51.976;5.326;2023-08-08T01:32:09;22.05;;;17.00;;
45402;SDS011;47427;51.976;5.326;2023-08-08T01:35:12;18.92;;;17.15;;
45402;SDS011;47427;51.976;5.326;2023-08-08T01:41:50;20.02;;;17.98;;
45402;SDS011;47427;51.976;5.326;2023-08-08T01:44:57;19.95;;;17.98;;
45402;SDS011;47427;51.976;5.326;2023-08-08T01:51:11;21.40;;;19.02;;
45402;SDS011;47427;51.976;5.326;2023-08-08T01:54:14;20.02;;;18.05;;
45402;SDS011;47427;51.976;5.326;2023-08-08T01:57:17;20.08;;;18.27;;
45402;SDS011;47427;51.976;5.326;2023-08-08T02:00:20;22.10;;;18.73;;
45402;SDS011;47427;51.976;5.326;2023-08-08T02:03:21;22.83;;;18.67;;
45402;SDS011;47427;51.976;5.326;2023-08-08T02:06:23;20.67;;;18.45;;
45402;SDS011;47427;51.976;5.326;2023-08-08T02:09:26;19.40;;;17.75;;
45402;SDS011;47427;51.976;5.326;2023-08-08T02:12:29;21.13;;;17.60;;
45402;SDS011;47427;51.976;5.326;2023-08-08T02:15:33;19.83;;;17.90;;
45402;SDS011;47427;51.976;5.326;2023-08-08T02:18:36;19.75;;;17.33;;
45402;SDS011;47427;51.976;5.326;2023-08-08T02:21:42;21.55;;;18.55;;
45402;SDS011;47427;51.976;5.326;2023-08-08T02:24:45;19.50;;;17.70;;
45402;SDS011;47427;51.976;5.326;2023-08-08T02:27:48;20.42;;;18.33;;
45402;SDS011;47427;51.976;5.326;2023-08-08T02:30:51;24.85;;;18.35;;
45402;SDS011;47427;51.976;5.326;2023-08-08T02:33:55;21.35;;;19.13;;
45402;SDS011;47427;51.976;5.326;2023-08-08T02:36:58;26.50;;;19.17;;
45402;SDS011;47427;51.976;5.326;2023-08-08T02:40:01;21.60;;;19.15;;
45402;SDS011;47427;51.976;5.326;2023-08-08T02:43:05;24.73;;;20.08;;
45402;SDS011;47427;51.976;5.326;2023-08-08T02:46:08;25.20;;;20.42;;
45402;SDS011;47427;51.976;5.326;2023-08-08T02:49:11;22.90;;;20.38;;
45402;SDS011;47427;51.976;5.326;2023-08-08T02:52:14;29.25;;;21.15;;
45402;SDS011;47427;51.976;5.326;2023-08-08T02:55:16;30.17;;;21.92;;
45402;SDS011;47427;51.976;5.326;2023-08-08T02:58:22;25.30;;;21.20;;
45402;SDS011;47427;51.976;5.326;2023-08-08T03:01:26;23.77;;;21.42;;
45402;SDS011;47427;51.976;5.326;2023-08-08T03:04:30;28.98;;;21.42;;
45402;SDS011;47427;51.976;5.326;2023-08-08T03:07:32;25.10;;;21.13;;
45402;SDS011;47427;51.976;5.326;2023-08-08T03:10:34;32.13;;;22.08;;
45402;SDS011;47427;51.976;5.326;2023-08-08T03:13:38;26.70;;;21.95;;
45402;SDS011;47427;51.976;5.326;2023-08-08T03:16:43;31.88;;;23.08;;
45402;SDS011;47427;51.976;5.326;2023-08-08T03:19:46;25.35;;;22.42;;
45402;SDS011;47427;51.976;5.326;2023-08-08T03:22:49;25.15;;;22.15;;
45402;SDS011;47427;51.976;5.326;2023-08-08T03:25:52;30.95;;;22.88;;
45402;SDS011;47427;51.976;5.326;2023-08-08T03:28:55;33.85;;;23.23;;
45402;SDS011;47427;51.976;5.326;2023-08-08T03:32:04;27.42;;;23.05;;
45402;SDS011;47427;51.976;5.326;2023-08-08T03:35:07;26.27;;;21.33;;
45402;SDS011;47427;51.976;5.326;2023-08-08T03:38:13;25.38;;;22.70;;
45402;SDS011;47427;51.976;5.326;2023-08-08T03:41:15;28.15;;;22.10;;
45402;SDS011;47427;51.976;5.326;2023-08-08T03:44:17;31.38;;;22.90;;
45402;SDS011;47427;51.976;5.326;2023-08-08T03:47:19;34.47;;;23.85;;
45402;SDS011;47427;51.976;5.326;2023-08-08T03:50:22;32.13;;;23.35;;
45402;SDS011;47427;51.976;5.326;2023-08-08T03:53:25;24.85;;;22.27;;
45402;SDS011;47427;51.976;5.326;2023-08-08T03:56:26;28.05;;;23.38;;
45402;SDS011;47427;51.976;5.326;2023-08-08T03:59:29;32.42;;;23.10;;
45402;SDS011;47427;51.976;5.326;2023-08-08T04:02:32;40.72;;;24.88;;
45402;SDS011;47427;51.976;5.326;2023-08-08T04:05:36;32.63;;;24.40;;
45402;SDS011;47427;51.976;5.326;2023-08-08T04:08:37;30.77;;;23.88;;
45402;SDS011;47427;51.976;5.326;2023-08-08T04:11:42;37.33;;;25.73;;
45402;SDS011;47427;51.976;5.326;2023-08-08T04:14:45;28.98;;;24.05;;
45402;SDS011;47427;51.976;5.326;2023-08-08T04:17:48;26.98;;;23.88;;
45402;SDS011;47427;51.976;5.326;2023-08-08T04:20:49;30.00;;;23.98;;
45402;SDS011;47427;51.976;5.326;2023-08-08T04:23:52;33.58;;;24.73;;
45402;SDS011;47427;51.976;5.326;2023-08-08T04:26:55;29.17;;;25.48;;
45402;SDS011;47427;51.976;5.326;2023-08-08T04:29:58;25.33;;;22.70;;
45402;SDS011;47427;51.976;5.326;2023-08-08T04:33:01;29.25;;;22.58;;
45402;SDS011;47427;51.976;5.326;2023-08-08T04:36:03;27.27;;;24.35;;
45402;SDS011;47427;51.976;5.326;2023-08-08T04:39:07;27.60;;;23.10;;
45402;SDS011;47427;51.976;5.326;2023-08-08T04:42:09;27.55;;;23.15;;
45402;SDS011;47427;51.976;5.326;2023-08-08T04:45:12;33.88;;;24.52;;
45402;SDS011;47427;51.976;5.326;2023-08-08T04:48:16;27.73;;;23.23;;
45402;SDS011;47427;51.976;5.326;2023-08-08T04:51:18;28.52;;;22.88;;
45402;SDS011;47427;51.976;5.326;2023-08-08T04:54:21;25.02;;;21.95;;
45402;SDS011;47427;51.976;5.326;2023-08-08T04:57:24;25.58;;;22.40;;
45402;SDS011;47427;51.976;5.326;2023-08-08T05:00:26;31.67;;;23.42;;
45402;SDS011;47427;51.976;5.326;2023-08-08T05:03:29;25.63;;;22.80;;
45402;SDS011;47427;51.976;5.326;2023-08-08T05:06:32;24.63;;;22.17;;
45402;SDS011;47427;51.976;5.326;2023-08-08T05:09:35;23.80;;;21.67;;
45402;SDS011;47427;51.976;5.326;2023-08-08T05:12:36;23.98;;;21.85;;
45402;SDS011;47427;51.976;5.326;2023-08-08T05:15:39;23.83;;;21.55;;
45402;SDS011;47427;51.976;5.326;2023-08-08T05:18:41;23.52;;;21.42;;
45402;SDS011;47427;51.976;5.326;2023-08-08T05:21:47;24.15;;;21.70;;
45402;SDS011;47427;51.976;5.326;2023-08-08T05:24:48;21.63;;;19.67;;
45402;SDS011;47427;51.976;5.326;2023-08-08T05:27:51;23.67;;;19.30;;
45402;SDS011;47427;51.976;5.326;2023-08-08T05:30:55;20.00;;;18.50;;
45402;SDS011;47427;51.976;5.326;2023-08-08T05:33:58;20.65;;;18.70;;
45402;SDS011;47427;51.976;5.326;2023-08-08T05:37:00;19.38;;;17.92;;
45402;SDS011;47427;51.976;5.326;2023-08-08T05:40:03;18.95;;;17.55;;
45402;SDS011;47427;51.976;5.326;2023-08-08T05:43:08;18.88;;;17.17;;
45402;SDS011;47427;51.976;5.326;2023-08-08T05:46:11;18.52;;;16.80;;
45402;SDS011;47427;51.976;5.326;2023-08-08T05:49:12;18.17;;;16.77;;
45402;SDS011;47427;51.976;5.326;2023-08-08T05:52:15;18.38;;;16.98;;
45402;SDS011;47427;51.976;5.326;2023-08-08T05:55:18;17.48;;;16.25;;
45402;SDS011;47427;51.976;5.326;2023-08-08T05:58:21;17.52;;;15.98;;
45402;SDS011;47427;51.976;5.326;2023-08-08T06:01:23;18.30;;;16.80;;
45402;SDS011;47427;51.976;5.326;2023-08-08T06:04:25;17.77;;;16.38;;
45402;SDS011;47427;51.976;5.326;2023-08-08T06:07:28;18.35;;;16.95;;
45402;SDS011;47427;51.976;5.326;2023-08-08T06:10:31;18.20;;;16.30;;
45402;SDS011;47427;51.976;5.326;2023-08-08T06:13:34;18.30;;;16.73;;
45402;SDS011;47427;51.976;5.326;2023-08-08T06:16:35;17.30;;;16.13;;
45402;SDS011;47427;51.976;5.326;2023-08-08T06:19:38;18.20;;;16.80;;
45402;SDS011;47427;51.976;5.326;2023-08-08T06:22:41;17.08;;;15.68;;
45402;SDS011;47427;51.976;5.326;2023-08-08T06:25:44;16.80;;;15.40;;
45402;SDS011;47427;51.976;5.326;2023-08-08T06:28:45;16.35;;;15.07;;
45402;SDS011;47427;51.976;5.326;2023-08-08T06:31:49;16.75;;;15.40;;
45402;SDS011;47427;51.976;5.326;2023-08-08T06:34:52;16.63;;;14.90;;
45402;SDS011;47427;51.976;5.326;2023-08-08T06:37:56;16.05;;;14.57;;
45402;SDS011;47427;51.976;5.326;2023-08-08T06:40:57;15.13;;;14.18;;
45402;SDS011;47427;51.976;5.326;2023-08-08T06:44:00;16.33;;;15.07;;
45402;SDS011;47427;51.976;5.326;2023-08-08T06:47:03;15.32;;;14.30;;
45402;SDS011;47427;51.976;5.326;2023-08-08T06:50:06;15.60;;;14.48;;
45402;SDS011;47427;51.976;5.326;2023-08-08T06:53:08;15.05;;;13.98;;
45402;SDS011;47427;51.976;5.326;2023-08-08T06:56:11;16.60;;;15.02;;
45402;SDS011;47427;51.976;5.326;2023-08-08T06:59:14;16.13;;;14.63;;
45402;SDS011;47427;51.976;5.326;2023-08-08T07:02:18;15.10;;;13.98;;
45402;SDS011;47427;51.976;5.326;2023-08-08T07:05:21;17.98;;;15.02;;
45402;SDS011;47427;51.976;5.326;2023-08-08T07:08:28;16.02;;;14.93;;
45402;SDS011;47427;51.976;5.326;2023-08-08T07:11:31;15.18;;;13.98;;
45402;SDS011;47427;51.976;5.326;2023-08-08T07:14:34;15.68;;;14.43;;
45402;SDS011;47427;51.976;5.326;2023-08-08T07:17:35;15.95;;;14.93;;
45402;SDS011;47427;51.976;5.326;2023-08-08T07:20:38;15.82;;;14.73;;
45402;SDS011;47427;51.976;5.326;2023-08-08T07:23:41;15.45;;;14.45;;
45402;SDS011;47427;51.976;5.326;2023-08-08T07:26:44;17.10;;;15.77;;
45402;SDS011;47427;51.976;5.326;2023-08-08T07:29:46;14.90;;;14.00;;
45402;SDS011;47427;51.976;5.326;2023-08-08T07:32:49;15.07;;;13.85;;
45402;SDS011;47427;51.976;5.326;2023-08-08T07:35:52;15.10;;;14.00;;
45402;SDS011;47427;51.976;5.326;2023-08-08T07:38:54;14.48;;;13.18;;
45402;SDS011;47427;51.976;5.326;2023-08-08T07:42:01;14.07;;;13.20;;
45402;SDS011;47427;51.976;5.326;2023-08-08T07:45:04;16.70;;;14.48;;
45402;SDS011;47427;51.976;5.326;2023-08-08T07:48:07;14.43;;;13.50;;
45402;SDS011;47427;51.976;5.326;2023-08-08T07:51:10;14.07;;;12.98;;
45402;SDS011;47427;51.976;5.326;2023-08-08T07:54:13;15.15;;;14.10;;
45402;SDS011;47427;51.976;5.326;2023-08-08T07:57:16;14.20;;;13.32;;
45402;SDS011;47427;51.976;5.326;2023-08-08T08:00:19;14.32;;;13.00;;
45402;SDS011;47427;51.976;5.326;2023-08-08T08:03:22;13.45;;;12.65;;
45402;SDS011;47427;51.976;5.326;2023-08-08T08:06:25;13.50;;;12.25;;
45402;SDS011;47427;51.976;5.326;2023-08-08T08:09:26;14.48;;;12.90;;
45402;SDS011;47427;51.976;5.326;2023-08-08T08:12:29;11.88;;;11.27;;
45402;SDS011;47427;51.976;5.326;2023-08-08T08:15:33;13.90;;;12.80;;
45402;SDS011;47427;51.976;5.326;2023-08-08T08:18:35;12.68;;;11.77;;
45402;SDS011;47427;51.976;5.326;2023-08-08T08:21:37;14.23;;;13.20;;
45402;SDS011;47427;51.976;5.326;2023-08-08T08:24:40;13.82;;;12.75;;
45402;SDS011;47427;51.976;5.326;2023-08-08T08:27:43;12.43;;;11.52;;
45402;SDS011;47427;51.976;5.326;2023-08-08T08:30:46;13.18;;;11.80;;
45402;SDS011;47427;51.976;5.326;2023-08-08T08:33:47;12.52;;;11.82;;
45402;SDS011;47427;51.976;5.326;2023-08-08T08:36:50;13.45;;;12.48;;
45402;SDS011;47427;51.976;5.326;2023-08-08T08:39:53;12.20;;;11.45;;
45402;SDS011;47427;51.976;5.326;2023-08-08T08:42:56;13.95;;;13.05;;
45402;SDS011;47427;51.976;5.326;2023-08-08T08:45:58;13.57;;;12.77;;
45402;SDS011;47427;51.976;5.326;2023-08-08T08:49:06;12.63;;;11.57;;
45402;SDS011;47427;51.976;5.326;2023-08-08T08:52:11;12.23;;;11.63;;
45402;SDS011;47427;51.976;5.326;2023-08-08T08:55:14;13.00;;;12.20;;
45402;SDS011;47427;51.976;5.326;2023-08-08T08:58:17;12.70;;;12.10;;
45402;SDS011;47427;51.976;5.326;2023-08-08T09:01:21;13.50;;;12.80;;
45402;SDS011;47427;51.976;5.326;2023-08-08T09:07:32;15.23;;;14.43;;
45402;SDS011;47427;51.976;5.326;2023-08-08T09:10:36;12.80;;;12.00;;
45402;SDS011;47427;51.976;5.326;2023-08-08T09:13:39;14.13;;;13.23;;
45402;SDS011;47427;51.976;5.326;2023-08-08T09:16:43;13.90;;;12.88;;
45402;SDS011;47427;51.976;5.326;2023-08-08T09:19:46;14.15;;;13.35;;
45402;SDS011;47427;51.976;5.326;2023-08-08T09:22:47;13.10;;;12.30;;
45402;SDS011;47427;51.976;5.326;2023-08-08T09:25:50;13.07;;;12.13;;
45402;SDS011;47427;51.976;5.326;2023-08-08T09:28:53;13.40;;;12.38;;
45402;SDS011;47427;51.976;5.326;2023-08-08T09:31:56;14.48;;;13.77;;
45402;SDS011;47427;51.976;5.326;2023-08-08T09:34:59;15.13;;;13.75;;
45402;SDS011;47427;51.976;5.326;2023-08-08T09:38:01;14.45;;;13.65;;
45402;SDS011;47427;51.976;5.326;2023-08-08T09:41:04;13.18;;;12.27;;
45402;SDS011;47427;51.976;5.326;2023-08-08T09:44:08;14.43;;;13.52;;
45402;SDS011;47427;51.976;5.326;2023-08-08T09:47:14;13.32;;;12.52;;
45402;SDS011;47427;51.976;5.326;2023-08-08T09:53:20;13.25;;;12.13;;
45402;SDS011;47427;51.976;5.326;2023-08-08T09:56:24;14.87;;;14.07;;
45402;SDS011;47427;51.976;5.326;2023-08-08T09:59:27;13.57;;;12.32;;
45402;SDS011;47427;51.976;5.326;2023-08-08T10:02:30;14.32;;;13.35;;
45402;SDS011;47427;51.976;5.326;2023-08-08T10:05:33;14.00;;;13.00;;
45402;SDS011;47427;51.976;5.326;2023-08-08T10:08:37;14.15;;;13.25;;
45402;SDS011;47427;51.976;5.326;2023-08-08T10:11:40;14.48;;;13.57;;
45402;SDS011;47427;51.976;5.326;2023-08-08T10:14:45;14.50;;;13.70;;
45402;SDS011;47427;51.976;5.326;2023-08-08T10:17:46;12.50;;;11.90;;
45402;SDS011;47427;51.976;5.326;2023-08-08T10:21:00;14.18;;;13.30;;
45402;SDS011;47427;51.976;5.326;2023-08-08T10:24:07;14.10;;;13.20;;
45402;SDS011;47427;51.976;5.326;2023-08-08T10:27:10;13.85;;;13.10;;
45402;SDS011;47427;51.976;5.326;2023-08-08T10:30:11;11.90;;;11.15;;
45402;SDS011;47427;51.976;5.326;2023-08-08T10:34:00;12.35;;;11.48;;
45402;SDS011;47427;51.976;5.326;2023-08-08T10:36:48;12.18;;;11.55;;
45402;SDS011;47427;51.976;5.326;2023-08-08T10:39:52;14.00;;;13.20;;
45402;SDS011;47427;51.976;5.326;2023-08-08T10:43:09;15.15;;;14.25;;
45402;SDS011;47427;51.976;5.326;2023-08-08T10:46:21;14.70;;;13.80;;
45402;SDS011;47427;51.976;5.326;2023-08-08T10:49:26;14.02;;;13.15;;
45402;SDS011;47427;51.976;5.326;2023-08-08T10:52:29;13.90;;;12.85;;
45402;SDS011;47427;51.976;5.326;2023-08-08T10:55:33;13.32;;;12.55;;
45402;SDS011;47427;51.976;5.326;2023-08-08T10:58:39;13.85;;;13.05;;
45402;SDS011;47427;51.976;5.326;2023-08-08T11:01:48;12.73;;;11.93;;
45402;SDS011;47427;51.976;5.326;2023-08-08T11:04:53;13.32;;;12.50;;
45402;SDS011;47427;51.976;5.326;2023-08-08T11:07:58;15.30;;;14.20;;
45402;SDS011;47427;51.976;5.326;2023-08-08T11:11:02;14.55;;;13.43;;
45402;SDS011;47427;51.976;5.326;2023-08-08T11:14:12;12.80;;;12.05;;
45402;SDS011;47427;51.976;5.326;2023-08-08T11:17:18;12.88;;;12.18;;
45402;SDS011;47427;51.976;5.326;2023-08-08T11:20:21;12.70;;;11.95;;
45402;SDS011;47427;51.976;5.326;2023-08-08T11:23:25;13.23;;;12.18;;
45402;SDS011;47427;51.976;5.326;2023-08-08T11:26:27;15.98;;;12.80;;
45402;SDS011;47427;51.976;5.326;2023-08-08T11:29:34;13.82;;;12.85;;
45402;SDS011;47427;51.976;5.326;2023-08-08T11:32:38;12.98;;;12.27;;
45402;SDS011;47427;51.976;5.326;2023-08-08T11:35:44;13.50;;;12.50;;
45402;SDS011;47427;51.976;5.326;2023-08-08T11:38:47;13.70;;;12.65;;
45402;SDS011;47427;51.976;5.326;2023-08-08T11:41:52;12.25;;;11.55;;
45402;SDS011;47427;51.976;5.326;2023-08-08T11:44:55;12.93;;;12.15;;
45402;SDS011;47427;51.976;5.326;2023-08-08T11:47:58;12.27;;;11.65;;
45402;SDS011;47427;51.976;5.326;2023-08-08T11:51:05;12.43;;;11.73;;
45402;SDS011;47427;51.976;5.326;2023-08-08T11:54:28;11.90;;;11.10;;
45402;SDS011;47427;51.976;5.326;2023-08-08T11:57:31;12.27;;;11.48;;
45402;SDS011;47427;51.976;5.326;2023-08-08T12:00:37;12.10;;;11.00;;
45402;SDS011;47427;51.976;5.326;2023-08-08T12:03:38;12.30;;;11.60;;
45402;SDS011;47427;51.976;5.326;2023-08-08T12:06:42;12.80;;;11.52;;
45402;SDS011;47427;51.976;5.326;2023-08-08T12:09:49;12.95;;;11.70;;
45402;SDS011;47427;51.976;5.326;2023-08-08T12:12:53;12.88;;;12.18;;
45402;SDS011;47427;51.976;5.326;2023-08-08T12:15:59;11.27;;;10.57;;
45402;SDS011;47427;51.976;5.326;2023-08-08T12:19:02;13.75;;;12.48;;
45402;SDS011;47427;51.976;5.326;2023-08-08T12:22:09;12.77;;;11.98;;
45402;SDS011;47427;51.976;5.326;2023-08-08T12:25:13;12.55;;;11.60;;
45402;SDS011;47427;51.976;5.326;2023-08-08T12:28:14;11.95;;;11.25;;
45402;SDS011;47427;51.976;5.326;2023-08-08T12:31:17;11.73;;;10.85;;
45402;SDS011;47427;51.976;5.326;2023-08-08T12:34:20;13.57;;;12.77;;
45402;SDS011;47427;51.976;5.326;2023-08-08T12:37:23;12.57;;;11.77;;
45402;SDS011;47427;51.976;5.326;2023-08-08T12:40:25;13.38;;;12.48;;
45402;SDS011;47427;51.976;5.326;2023-08-08T12:43:28;11.95;;;11.05;;
45402;SDS011;47427;51.976;5.326;2023-08-08T12:46:31;13.50;;;12.27;;
45402;SDS011;47427;51.976;5.326;2023-08-08T12:49:34;12.68;;;11.60;;
45402;SDS011;47427;51.976;5.326;2023-08-08T12:52:36;12.57;;;11.65;;
45402;SDS011;47427;51.976;5.326;2023-08-08T12:55:40;13.57;;;12.02;;
45402;SDS011;47427;51.976;5.326;2023-08-08T12:58:43;12.60;;;11.68;;
45402;SDS011;47427;51.976;5.326;2023-08-08T13:01:45;11.70;;;10.90;;
45402;SDS011;47427;51.976;5.326;2023-08-08T13:04:47;12.35;;;11.43;;
45402;SDS011;47427;51.976;5.326;2023-08-08T13:07:50;12.80;;;11.80;;
45402;SDS011;47427;51.976;5.326;2023-08-08T13:10:53;13.32;;;12.23;;
45402;SDS011;47427;51.976;5.326;2023-08-08T13:13:56;11.93;;;11.15;;
45402;SDS011;47427;51.976;5.326;2023-08-08T13:16:59;12.13;;;11.32;;
45402;SDS011;47427;51.976;5.326;2023-08-08T13:20:02;12.77;;;12.00;;
45402;SDS011;47427;51.976;5.326;2023-08-08T13:23:08;11.43;;;10.43;;
45402;SDS011;47427;51.976;5.326;2023-08-08T13:26:11;12.02;;;11.05;;
45402;SDS011;47427;51.976;5.326;2023-08-08T13:29:14;12.90;;;11.70;;
45402;SDS011;47427;51.976;5.326;2023-08-08T13:32:17;11.13;;;10.52;;
45402;SDS011;47427;51.976;5.326;2023-08-08T13:35:20;11.55;;;10.85;;
45402;SDS011;47427;51.976;5.326;2023-08-08T13:38:23;12.00;;;11.20;;
45402;SDS011;47427;51.976;5.326;2023-08-08T13:41:26;12.15;;;11.35;;
45402;SDS011;47427;51.976;5.326;2023-08-08T13:44:28;12.52;;;11.68;;
45402;SDS011;47427;51.976;5.326;2023-08-08T13:47:30;12.63;;;11.85;;
45402;SDS011;47427;51.976;5.326;2023-08-08T13:50:33;11.88;;;11.10;;
45402;SDS011;47427;51.976;5.326;2023-08-08T13:53:36;11.65;;;10.95;;
45402;SDS011;47427;51.976;5.326;2023-08-08T13:56:37;12.40;;;11.50;;
45402;SDS011;47427;51.976;5.326;2023-08-08T13:59:40;12.20;;;11.20;;
45402;SDS011;47427;51.976;5.326;2023-08-08T14:02:43;13.18;;;12.38;;
45402;SDS011;47427;51.976;5.326;2023-08-08T14:05:46;13.05;;;12.07;;
45402;SDS011;47427;51.976;5.326;2023-08-08T14:08:47;12.02;;;11.25;;
45402;SDS011;47427;51.976;5.326;2023-08-08T14:11:50;11.60;;;10.95;;
45402;SDS011;47427;51.976;5.326;2023-08-08T14:14:53;11.95;;;11.23;;
45402;SDS011;47427;51.976;5.326;2023-08-08T14:17:56;12.65;;;11.68;;
45402;SDS011;47427;51.976;5.326;2023-08-08T14:20:57;12.93;;;11.88;;
45402;SDS011;47427;51.976;5.326;2023-08-08T14:24:01;12.20;;;11.40;;
45402;SDS011;47427;51.976;5.326;2023-08-08T14:27:05;12.32;;;11.50;;
45402;SDS011;47427;51.976;5.326;2023-08-08T14:30:09;11.77;;;11.07;;
45402;SDS011;47427;51.976;5.326;2023-08-08T14:33:12;12.10;;;11.30;;
45402;SDS011;47427;51.976;5.326;2023-08-08T14:36:17;11.27;;;10.50;;
45402;SDS011;47427;51.976;5.326;2023-08-08T14:39:20;11.70;;;10.85;;
45402;SDS011;47427;51.976;5.326;2023-08-08T14:42:23;10.82;;;10.23;;
45402;SDS011;47427;51.976;5.326;2023-08-08T14:45:24;11.10;;;10.48;;
45402;SDS011;47427;51.976;5.326;2023-08-08T14:48:26;11.65;;;10.93;;
45402;SDS011;47427;51.976;5.326;2023-08-08T14:51:48;11.85;;;11.15;;
45402;SDS011;47427;51.976;5.326;2023-08-08T14:54:49;12.13;;;11.23;;
45402;SDS011;47427;51.976;5.326;2023-08-08T14:57:51;11.82;;;11.02;;
45402;SDS011;47427;51.976;5.326;2023-08-08T15:00:54;12.00;;;10.82;;
45402;SDS011;47427;51.976;5.326;2023-08-08T15:03:57;12.10;;;11.30;;
45402;SDS011;47427;51.976;5.326;2023-08-08T15:07:00;12.48;;;11.52;;
45402;SDS011;47427;51.976;5.326;2023-08-08T15:10:03;12.95;;;12.05;;
45402;SDS011;47427;51.976;5.326;2023-08-08T15:13:06;13.38;;;11.88;;
45402;SDS011;47427;51.976;5.326;2023-08-08T15:16:09;13.25;;;12.20;;
45402;SDS011;47427;51.976;5.326;2023-08-08T15:19:12;12.40;;;11.43;;
45402;SDS011;47427;51.976;5.326;2023-08-08T15:22:14;13.27;;;12.23;;
45402;SDS011;47427;51.976;5.326;2023-08-08T15:25:16;12.30;;;11.32;;
45402;SDS011;47427;51.976;5.326;2023-08-08T15:28:19;11.68;;;10.80;;
45402;SDS011;47427;51.976;5.326;2023-08-08T15:31:22;12.68;;;11.50;;
45402;SDS011;47427;51.976;5.326;2023-08-08T15:34:25;12.45;;;11.52;;
45402;SDS011;47427;51.976;5.326;2023-08-08T15:37:26;12.60;;;11.52;;
45402;SDS011;47427;51.976;5.326;2023-08-08T15:40:29;12.60;;;11.55;;
45402;SDS011;47427;51.976;5.326;2023-08-08T15:43:32;12.98;;;12.18;;
45402;SDS011;47427;51.976;5.326;2023-08-08T15:46:35;12.50;;;11.60;;
45402;SDS011;47427;51.976;5.326;2023-08-08T15:49:36;12.70;;;11.63;;
45402;SDS011;47427;51.976;5.326;2023-08-08T15:52:39;12.57;;;11.68;;
45402;SDS011;47427;51.976;5.326;2023-08-08T15:55:43;13.02;;;11.75;;
45402;SDS011;47427;51.976;5.326;2023-08-08T15:58:45;13.50;;;12.40;;
45402;SDS011;47427;51.976;5.326;2023-08-08T16:01:47;14.18;;;13.07;;
45402;SDS011;47427;51.976;5.326;2023-08-08T16:04:50;13.93;;;12.93;;
45402;SDS011;47427;51.976;5.326;2023-08-08T16:07:54;13.37;;;12.30;;
45402;SDS011;47427;51.976;5.326;2023-08-08T16:10:57;13.30;;;12.40;;
45402;SDS011;47427;51.976;5.326;2023-08-08T16:13:58;13.55;;;12.38;;
45402;SDS011;47427;51.976;5.326;2023-08-08T16:17:02;12.73;;;11.73;;
45402;SDS011;47427;51.976;5.326;2023-08-08T16:20:05;13.63;;;12.50;;
45402;SDS011;47427;51.976;5.326;2023-08-08T16:23:08;13.20;;;12.20;;
45402;SDS011;47427;51.976;5.326;2023-08-08T16:26:10;12.93;;;12.02;;
45402;SDS011;47427;51.976;5.326;2023-08-08T16:29:13;12.98;;;11.88;;
45402;SDS011;47427;51.976;5.326;2023-08-08T16:32:15;12.90;;;12.00;;
45402;SDS011;47427;51.976;5.326;2023-08-08T16:35:18;12.88;;;11.98;;
45402;SDS011;47427;51.976;5.326;2023-08-08T16:38:20;13.75;;;12.77;;
45402;SDS011;47427;51.976;5.326;2023-08-08T16:41:23;13.85;;;12.75;;
45402;SDS011;47427;51.976;5.326;2023-08-08T16:44:25;13.10;;;12.40;;
45402;SDS011;47427;51.976;5.326;2023-08-08T16:47:28;13.00;;;12.13;;
45402;SDS011;47427;51.976;5.326;2023-08-08T16:50:31;13.95;;;12.85;;
45402;SDS011;47427;51.976;5.326;2023-08-08T16:53:34;12.98;;;11.98;;
45402;SDS011;47427;51.976;5.326;2023-08-08T16:56:37;14.10;;;13.13;;
45402;SDS011;47427;51.976;5.326;2023-08-08T16:59:39;14.00;;;13.20;;
45402;SDS011;47427;51.976;5.326;2023-08-08T17:02:42;14.15;;;13.02;;
45402;SDS011;47427;51.976;5.326;2023-08-08T17:05:44;14.20;;;13.05;;
45402;SDS011;47427;51.976;5.326;2023-08-08T17:08:47;13.93;;;13.02;;
45402;SDS011;47427;51.976;5.326;2023-08-08T17:11:49;14.18;;;13.23;;
45402;SDS011;47427;51.976;5.326;2023-08-08T17:14:54;14.05;;;13.13;;
45402;SDS011;47427;51.976;5.326;2023-08-08T17:17:56;14.07;;;13.07;;
45402;SDS011;47427;51.976;5.326;2023-08-08T17:20:59;15.32;;;13.80;;
45402;SDS011;47427;51.976;5.326;2023-08-08T17:24:03;14.00;;;13.20;;
45402;SDS011;47427;51.976;5.326;2023-08-08T17:27:06;14.52;;;13.43;;
45402;SDS011;47427;51.976;5.326;2023-08-08T17:30:08;14.10;;;13.20;;
45402;SDS011;47427;51.976;5.326;2023-08-08T17:33:12;14.48;;;13.38;;
45402;SDS011;47427;51.976;5.326;2023-08-08T17:36:15;14.10;;;13.30;;
45402;SDS011;47427;51.976;5.326;2023-08-08T17:39:18;14.55;;;13.48;;
45402;SDS011;47427;51.976;5.326;2023-08-08T17:42:19;14.45;;;13.30;;
45402;SDS011;47427;51.976;5.326;2023-08-08T17:45:22;14.80;;;13.52;;
45402;SDS011;47427;51.976;5.326;2023-08-08T17:48:25;14.18;;;13.27;;
45402;SDS011;47427;51.976;5.326;2023-08-08T17:51:28;14.98;;;13.98;;
45402;SDS011;47427;51.976;5.326;2023-08-08T17:54:30;15.30;;;14.18;;
45402;SDS011;47427;51.976;5.326;2023-08-08T17:57:32;16.30;;;14.85;;
45402;SDS011;47427;51.976;5.326;2023-08-08T18:00:35;17.98;;;16.58;;
45402;SDS011;47427;51.976;5.326;2023-08-08T18:03:38;15.10;;;14.00;;
45402;SDS011;47427;51.976;5.326;2023-08-08T18:06:40;15.05;;;14.13;;